Time;durP1;ratioP1;P1;durP2;ratioP2;P2;SDS_P1;SDS_P2;PMS_P1;PMS_P2;Temp;Humidity;BMP_temperature;BMP_pressure;BME280_temperature;BME280_humidity;BME280_pressure;Samples;Min_cycle;Max_cycle;Signal;HPM_P1;HPM_P2
2022/03/25 00:22:40;;;;;;;14.85;9.00;;;;;;;;;;4343534;29;20220;-70
2022/03/25 00:25:08;;;;;;;14.38;8.85;;;;;;;;;;4136832;34;20130;-70
2022/03/25 00:27:34;;;;;;;13.93;8.93;;;;;;;;;;4136900;34;20142;-70
2022/03/25 00:30:01;;;;;;;11.90;8.63;;;;;;;;;;4135845;34;20092;-69
2022/03/25 00:32:27;;;;;;;13.77;8.40;;;;;;;;;;4122701;34;20135;-72
2022/03/25 00:34:54;;;;;;;19.15;10.02;;;;;;;;;;4137192;34;20130;-73
2022/03/25 00:37:20;;;;;;;13.43;8.80;;;;;;;;;;4136642;34;20124;-73
2022/03/25 00:39:46;;;;;;;13.95;9.32;;;;;;;;;;4137055;34;20114;-73
2022/03/25 00:42:13;;;;;;;18.33;8.93;;;;;;;;;;4135429;34;20135;-72
2022/03/25 00:44:40;;;;;;;12.10;8.38;;;;;;;;;;4135670;34;20091;-72
2022/03/25 00:47:06;;;;;;;13.68;7.78;;;;;;;;;;4136799;34;20558;-73
2022/03/25 00:49:32;;;;;;;13.27;8.65;;;;;;;;;;4135377;34;20213;-73
2022/03/25 00:51:58;;;;;;;12.13;8.45;;;;;;;;;;4135315;34;20139;-69
2022/03/25 00:54:25;;;;;;;12.65;7.95;;;;;;;;;;4136742;34;20155;-71
2022/03/25 00:56:51;;;;;;;13.88;8.23;;;;;;;;;;4133043;34;20100;-70
2022/03/25 00:59:17;;;;;;;13.60;7.95;;;;;;;;;;4122071;34;20213;-70
2022/03/25 01:01:43;;;;;;;15.68;8.18;;;;;;;;;;4123595;34;20110;-70
2022/03/25 01:04:09;;;;;;;12.07;6.90;;;;;;;;;;4135314;34;20126;-70
2022/03/25 01:06:35;;;;;;;12.10;7.72;;;;;;;;;;4124022;34;20100;-70
2022/03/25 01:09:03;;;;;;;13.88;7.53;;;;;;;;;;4136531;34;20497;-69
2022/03/25 01:11:29;;;;;;;14.98;8.13;;;;;;;;;;4124298;34;20444;-70
2022/03/25 01:13:55;;;;;;;10.45;7.57;;;;;;;;;;4135054;34;20113;-71
2022/03/25 01:16:21;;;;;;;11.65;7.93;;;;;;;;;;4124238;34;20119;-70
2022/03/25 01:18:47;;;;;;;13.68;8.63;;;;;;;;;;4136394;34;20119;-70
2022/03/25 01:21:13;;;;;;;12.48;8.00;;;;;;;;;;4136435;34;20115;-70
2022/03/25 01:23:39;;;;;;;11.98;7.40;;;;;;;;;;4136136;34;20275;-69
2022/03/25 01:26:05;;;;;;;14.00;8.20;;;;;;;;;;4136281;34;20110;-70
2022/03/25 01:28:34;;;;;;;14.00;8.32;;;;;;;;;;4136686;34;20127;-69
2022/03/25 01:31:03;;;;;;;12.63;7.53;;;;;;;;;;4136600;34;20103;-69
2022/03/25 01:33:30;;;;;;;11.40;8.05;;;;;;;;;;4112803;34;20142;-69
2022/03/25 01:35:59;;;;;;;15.52;8.60;;;;;;;;;;4136524;34;20203;-71
2022/03/25 01:38:28;;;;;;;14.15;8.18;;;;;;;;;;4136289;34;20530;-70
2022/03/25 01:40:54;;;;;;;11.10;7.85;;;;;;;;;;4136293;34;20125;-70
2022/03/25 01:43:20;;;;;;;14.68;8.65;;;;;;;;;;4136209;34;20103;-70
2022/03/25 01:45:46;;;;;;;13.80;8.15;;;;;;;;;;4123936;34;20265;-70
2022/03/25 01:48:13;;;;;;;13.85;8.75;;;;;;;;;;4112485;34;20171;-71
2022/03/25 01:50:40;;;;;;;13.55;8.82;;;;;;;;;;4136411;34;20104;-70
2022/03/25 01:53:11;;;;;;;11.00;7.75;;;;;;;;;;4112483;34;20301;-74
2022/03/25 01:55:38;;;;;;;13.95;8.25;;;;;;;;;;4123599;34;20111;-74
2022/03/25 01:58:07;;;;;;;16.70;9.23;;;;;;;;;;4135891;34;20096;-74
2022/03/25 02:00:34;;;;;;;14.20;8.82;;;;;;;;;;4124567;34;20467;-74
2022/03/25 02:03:00;;;;;;;12.82;8.10;;;;;;;;;;4127959;34;20184;-74
2022/03/25 02:05:26;;;;;;;13.57;8.65;;;;;;;;;;4127998;34;20123;-74
2022/03/25 02:07:52;;;;;;;13.50;8.15;;;;;;;;;;4128139;34;20195;-74
2022/03/25 02:10:18;;;;;;;11.20;7.43;;;;;;;;;;4139284;34;20111;-74
2022/03/25 02:12:44;;;;;;;13.88;8.77;;;;;;;;;;4138980;34;20123;-74
2022/03/25 02:15:12;;;;;;;13.60;8.30;;;;;;;;;;4140417;34;20123;-74
2022/03/25 02:17:38;;;;;;;14.07;9.55;;;;;;;;;;4128184;34;20116;-73
2022/03/25 02:20:09;;;;;;;12.65;8.00;;;;;;;;;;4140281;34;20507;-74
2022/03/25 02:22:36;;;;;;;11.60;7.75;;;;;;;;;;4140462;34;20146;-70
2022/03/25 02:25:08;;;;;;;12.13;8.60;;;;;;;;;;4140110;34;20428;-71
2022/03/25 02:27:36;;;;;;;12.07;8.30;;;;;;;;;;4140488;34;20130;-70
2022/03/25 02:30:06;;;;;;;14.30;8.02;;;;;;;;;;4140170;34;20100;-69
2022/03/25 02:32:33;;;;;;;13.13;8.63;;;;;;;;;;4139840;34;20216;-69
2022/03/25 02:34:59;;;;;;;13.23;8.30;;;;;;;;;;4140351;34;20104;-68
2022/03/25 02:37:25;;;;;;;12.77;7.72;;;;;;;;;;4127446;34;20134;-69
2022/03/25 02:39:53;;;;;;;11.82;8.13;;;;;;;;;;4127560;34;20166;-69
2022/03/25 02:42:19;;;;;;;11.10;7.47;;;;;;;;;;4140202;34;20216;-70
2022/03/25 02:44:46;;;;;;;14.43;7.80;;;;;;;;;;4138649;34;20102;-72
2022/03/25 02:47:12;;;;;;;15.70;8.52;;;;;;;;;;4116789;34;20219;-72
2022/03/25 02:49:38;;;;;;;11.38;7.78;;;;;;;;;;4138945;34;20187;-72
2022/03/25 02:52:04;;;;;;;11.82;7.82;;;;;;;;;;4128042;34;20111;-72
2022/03/25 02:54:30;;;;;;;16.48;8.35;;;;;;;;;;4140211;34;20115;-70
2022/03/25 02:56:58;;;;;;;14.73;7.90;;;;;;;;;;4139858;34;20235;-72
2022/03/25 02:59:25;;;;;;;11.23;8.18;;;;;;;;;;4140068;34;20129;-71
2022/03/25 03:01:52;;;;;;;13.02;7.12;;;;;;;;;;4127574;34;20167;-73
2022/03/25 03:04:18;;;;;;;15.35;7.05;;;;;;;;;;4127541;34;20114;-73
2022/03/25 03:06:45;;;;;;;16.23;7.10;;;;;;;;;;4127459;34;20119;-74
2022/03/25 03:09:11;;;;;;;15.35;6.22;;;;;;;;;;4116262;34;20192;-76
2022/03/25 03:11:37;;;;;;;10.18;6.00;;;;;;;;;;4127229;34;20130;-77
2022/03/25 03:14:04;;;;;;;10.18;5.57;;;;;;;;;;4124552;34;20441;-75
2022/03/25 03:16:31;;;;;;;13.25;5.22;;;;;;;;;;4137712;34;20123;-74
2022/03/25 03:19:08;;;;;;;;;;;;;;;;;;;;;
2022/03/25 03:21:41;;;;;;;10.18;5.35;;;;;;;;;;4124546;34;20656;-75
2022/03/25 03:24:08;;;;;;;8.15;5.18;;;;;;;;;;4135742;34;20472;-76
2022/03/25 03:26:34;;;;;;;8.15;4.90;;;;;;;;;;4136997;34;20158;-72
2022/03/25 03:29:00;;;;;;;9.95;4.05;;;;;;;;;;4137061;34;20289;-73
2022/03/25 03:31:26;;;;;;;15.02;6.82;;;;;;;;;;4137248;34;20549;-71
2022/03/25 03:34:17;;;;;;;10.90;5.22;;;;;;;;;;4137335;34;20547;-73
2022/03/25 03:36:43;;;;;;;8.13;5.57;;;;;;;;;;4135961;34;20523;-71
2022/03/25 03:39:11;;;;;;;13.02;6.15;;;;;;;;;;4136353;34;20135;-70
2022/03/25 03:41:38;;;;;;;8.63;4.90;;;;;;;;;;4137094;34;20506;-67
2022/03/25 03:44:05;;;;;;;13.02;8.90;;;;;;;;;;4124744;34;20142;-68
2022/03/25 03:46:33;;;;;;;12.05;8.05;;;;;;;;;;4124843;34;20102;-70
2022/03/25 03:48:59;;;;;;;11.40;7.03;;;;;;;;;;4124823;34;20628;-70
2022/03/25 03:51:25;;;;;;;10.95;7.95;;;;;;;;;;4124677;34;20636;-71
2022/03/25 03:53:51;;;;;;;15.30;7.85;;;;;;;;;;4137292;34;20147;-71
2022/03/25 03:56:17;;;;;;;10.18;6.75;;;;;;;;;;4137166;34;20187;-70
2022/03/25 03:58:43;;;;;;;11.00;7.53;;;;;;;;;;4137381;34;20130;-70
2022/03/25 04:01:10;;;;;;;14.65;7.45;;;;;;;;;;4136035;34;20699;-71
2022/03/25 04:03:36;;;;;;;13.27;7.65;;;;;;;;;;4135858;34;20118;-70
2022/03/25 04:06:02;;;;;;;13.43;7.70;;;;;;;;;;4137147;34;20119;-70
2022/03/25 04:08:28;;;;;;;11.65;7.05;;;;;;;;;;4125379;34;20594;-71
2022/03/25 04:10:54;;;;;;;8.65;6.57;;;;;;;;;;4137695;34;20119;-71
2022/03/25 04:13:20;;;;;;;9.68;6.40;;;;;;;;;;4135561;34;20122;-72
2022/03/25 04:15:46;;;;;;;13.35;7.20;;;;;;;;;;4135600;34;20138;-71
2022/03/25 04:18:12;;;;;;;14.50;7.93;;;;;;;;;;4124544;34;20102;-73
2022/03/25 04:20:38;;;;;;;13.18;7.10;;;;;;;;;;4136768;34;20136;-73
2022/03/25 04:23:04;;;;;;;12.32;7.10;;;;;;;;;;4124239;34;20138;-72
2022/03/25 04:25:30;;;;;;;14.95;7.30;;;;;;;;;;4136600;34;20200;-71
2022/03/25 04:27:57;;;;;;;13.65;6.78;;;;;;;;;;4124394;34;20261;-70
2022/03/25 04:30:25;;;;;;;10.27;6.60;;;;;;;;;;4136186;34;20111;-65
2022/03/25 04:32:52;;;;;;;10.07;6.85;;;;;;;;;;4135963;34;20151;-66
2022/03/25 04:35:19;;;;;;;11.35;7.07;;;;;;;;;;4124095;34;20155;-66
2022/03/25 04:37:45;;;;;;;10.10;6.45;;;;;;;;;;4124148;34;20520;-68
2022/03/25 04:40:12;;;;;;;12.25;7.93;;;;;;;;;;4124401;34;20195;-67
2022/03/25 04:42:38;;;;;;;14.43;7.97;;;;;;;;;;4136717;34;20641;-68
2022/03/25 04:45:04;;;;;;;11.50;8.07;;;;;;;;;;4136734;34;20663;-68
2022/03/25 04:47:30;;;;;;;11.45;7.60;;;;;;;;;;4136549;34;20130;-64
2022/03/25 04:49:56;;;;;;;9.13;6.60;;;;;;;;;;4136691;34;20154;-66
2022/03/25 04:52:22;;;;;;;12.93;7.85;;;;;;;;;;4136651;34;20192;-70
2022/03/25 04:54:48;;;;;;;9.77;5.10;;;;;;;;;;4135412;34;20538;-69
2022/03/25 04:57:14;;;;;;;10.75;7.43;;;;;;;;;;4136454;34;21076;-70
2022/03/25 04:59:40;;;;;;;9.52;6.95;;;;;;;;;;4136481;34;20099;-70
2022/03/25 05:02:06;;;;;;;13.02;7.15;;;;;;;;;;4136626;34;20133;-70
2022/03/25 05:04:32;;;;;;;10.70;7.20;;;;;;;;;;4136248;34;20180;-71
2022/03/25 05:06:58;;;;;;;9.85;6.32;;;;;;;;;;4136560;34;20134;-70
2022/03/25 05:09:24;;;;;;;11.00;6.95;;;;;;;;;;4136518;34;20528;-68
2022/03/25 05:11:50;;;;;;;9.70;5.60;;;;;;;;;;4136722;34;20123;-67
2022/03/25 05:14:16;;;;;;;8.93;6.00;;;;;;;;;;4135096;34;20127;-66
2022/03/25 05:16:42;;;;;;;10.75;6.78;;;;;;;;;;4136654;34;20111;-70
2022/03/25 05:19:09;;;;;;;10.07;5.15;;;;;;;;;;4124191;34;20225;-67
2022/03/25 05:21:37;;;;;;;11.20;6.62;;;;;;;;;;4124084;34;20095;-68
2022/03/25 05:24:04;;;;;;;11.45;6.12;;;;;;;;;;4136352;34;20207;-68
2022/03/25 05:26:29;;;;;;;12.70;5.85;;;;;;;;;;4134564;34;20102;-68
2022/03/25 05:28:55;;;;;;;10.05;6.82;;;;;;;;;;4123882;34;20708;-68
2022/03/25 05:31:21;;;;;;;8.73;5.47;;;;;;;;;;4135765;34;20119;-69
2022/03/25 05:33:48;;;;;;;10.00;5.50;;;;;;;;;;4136213;34;20149;-67
2022/03/25 05:36:14;;;;;;;7.45;4.43;;;;;;;;;;4135413;34;20126;-68
2022/03/25 05:38:40;;;;;;;9.07;4.65;;;;;;;;;;4136247;34;20127;-68
2022/03/25 05:41:07;;;;;;;10.15;5.10;;;;;;;;;;4136147;34;20215;-67
2022/03/25 05:43:34;;;;;;;8.75;5.53;;;;;;;;;;4136259;34;20114;-68
2022/03/25 05:46:00;;;;;;;7.70;4.32;;;;;;;;;;4135800;34;20107;-68
2022/03/25 05:48:26;;;;;;;8.80;5.78;;;;;;;;;;4136241;34;20223;-66
2022/03/25 05:50:52;;;;;;;10.43;5.25;;;;;;;;;;4134930;34;20558;-70
2022/03/25 05:53:19;;;;;;;10.63;5.12;;;;;;;;;;4136177;34;20127;-70
2022/03/25 05:55:45;;;;;;;9.75;4.85;;;;;;;;;;4123653;34;20506;-70
2022/03/25 05:58:10;;;;;;;9.68;5.60;;;;;;;;;;4136075;34;20093;-69
2022/03/25 06:00:37;;;;;;;5.00;2.72;;;;;;;;;;4136236;34;20200;-67
2022/03/25 06:03:05;;;;;;;1.15;1.10;;;;;;;;;;4136264;34;20212;-69
2022/03/25 06:05:31;;;;;;;6.22;4.47;;;;;;;;;;4124468;34;20139;-69
2022/03/25 06:07:57;;;;;;;10.45;5.78;;;;;;;;;;4136003;34;20456;-68
2022/03/25 06:10:25;;;;;;;9.60;5.28;;;;;;;;;;4123434;34;20127;-69
2022/03/25 06:12:50;;;;;;;8.27;5.75;;;;;;;;;;4135939;34;20571;-69
2022/03/25 06:15:16;;;;;;;12.25;6.03;;;;;;;;;;4135926;34;20126;-67
2022/03/25 06:17:44;;;;;;;11.30;6.12;;;;;;;;;;4136247;34;20127;-68
2022/03/25 06:20:12;;;;;;;5.53;4.22;;;;;;;;;;4135860;34;20088;-68
2022/03/25 06:22:40;;;;;;;7.40;3.30;;;;;;;;;;4136115;34;20134;-68
2022/03/25 06:25:13;;;;;;;10.10;5.30;;;;;;;;;;4135673;34;20118;-68
2022/03/25 06:27:50;;;;;;;10.48;5.62;;;;;;;;;;4135938;34;20214;-68
2022/03/25 06:30:16;;;;;;;8.55;5.35;;;;;;;;;;4135835;34;20207;-68
2022/03/25 06:32:43;;;;;;;10.48;6.00;;;;;;;;;;4135043;34;20142;-67
2022/03/25 06:35:09;;;;;;;10.82;5.72;;;;;;;;;;4123157;34;20099;-67
2022/03/25 06:37:36;;;;;;;8.05;5.55;;;;;;;;;;4135822;34;20179;-68
2022/03/25 06:40:06;;;;;;;8.38;4.95;;;;;;;;;;4135543;34;20211;-67
2022/03/25 06:42:34;;;;;;;6.75;4.57;;;;;;;;;;4123430;34;20192;-65
2022/03/25 06:45:02;;;;;;;6.78;4.75;;;;;;;;;;4135542;34;20126;-66
2022/03/25 06:47:29;;;;;;;7.72;4.72;;;;;;;;;;4136639;34;20134;-65
2022/03/25 06:49:55;;;;;;;11.98;4.62;;;;;;;;;;4137639;34;20543;-67
2022/03/25 06:52:22;;;;;;;8.48;4.40;;;;;;;;;;4137729;34;20130;-74
2022/03/25 06:54:48;;;;;;;9.45;4.53;;;;;;;;;;4125398;34;20595;-75
2022/03/25 06:57:14;;;;;;;11.77;5.07;;;;;;;;;;4125052;34;20212;-73
2022/03/25 06:59:43;;;;;;;10.80;5.12;;;;;;;;;;4137518;34;20179;-65
2022/03/25 07:02:10;;;;;;;11.90;5.80;;;;;;;;;;4136040;34;20131;-64
2022/03/25 07:04:37;;;;;;;10.32;5.75;;;;;;;;;;4136444;34;20196;-64
2022/03/25 07:07:05;;;;;;;10.70;5.97;;;;;;;;;;4124885;34;20126;-63
2022/03/25 07:09:31;;;;;;;11.38;5.65;;;;;;;;;;4137517;34;20100;-64
2022/03/25 07:11:58;;;;;;;8.35;6.32;;;;;;;;;;4137432;34;20092;-63
2022/03/25 07:14:23;;;;;;;9.82;6.00;;;;;;;;;;4124783;34;20132;-64
2022/03/25 07:16:49;;;;;;;9.60;5.78;;;;;;;;;;4125088;34;20139;-65
2022/03/25 07:19:15;;;;;;;11.45;5.68;;;;;;;;;;4137735;34;20516;-65
2022/03/25 07:21:41;;;;;;;9.93;6.30;;;;;;;;;;4137775;34;20448;-65
2022/03/25 07:24:07;;;;;;;9.45;6.10;;;;;;;;;;4137514;34;20518;-64
2022/03/25 07:26:33;;;;;;;10.63;5.72;;;;;;;;;;4137596;34;20122;-64
2022/03/25 07:28:59;;;;;;;13.27;6.65;;;;;;;;;;4137596;34;20460;-63
2022/03/25 07:31:28;;;;;;;14.82;6.47;;;;;;;;;;4137576;34;20141;-64
2022/03/25 07:33:55;;;;;;;10.48;6.35;;;;;;;;;;4137663;34;20107;-64
2022/03/25 07:36:21;;;;;;;10.23;7.30;;;;;;;;;;4137427;34;20103;-65
2022/03/25 07:38:47;;;;;;;16.75;7.37;;;;;;;;;;4137323;34;20188;-68
2022/03/25 07:41:13;;;;;;;18.27;6.50;;;;;;;;;;4124886;34;20120;-68
2022/03/25 07:43:39;;;;;;;9.50;6.40;;;;;;;;;;4137506;34;20137;-67
2022/03/25 07:46:06;;;;;;;14.93;7.50;;;;;;;;;;4137177;34;20456;-67
2022/03/25 07:48:32;;;;;;;9.90;6.43;;;;;;;;;;4137322;34;20539;-68
2022/03/25 07:50:58;;;;;;;10.63;7.22;;;;;;;;;;4124663;34;20120;-68
2022/03/25 07:53:24;;;;;;;13.27;7.30;;;;;;;;;;4125035;34;20174;-68
2022/03/25 07:55:51;;;;;;;10.75;7.93;;;;;;;;;;4124491;34;20532;-68
2022/03/25 07:58:21;;;;;;;17.27;8.30;;;;;;;;;;4136606;34;20131;-68
2022/03/25 08:00:48;;;;;;;16.23;7.75;;;;;;;;;;4124567;34;20119;-68
2022/03/25 08:03:16;;;;;;;10.88;8.27;;;;;;;;;;4125374;34;20548;-77
2022/03/25 08:05:42;;;;;;;18.75;8.75;;;;;;;;;;4124859;34;20499;-74
2022/03/25 08:08:09;;;;;;;13.35;8.57;;;;;;;;;;4124547;34;20500;-74
2022/03/25 08:10:36;;;;;;;16.20;9.55;;;;;;;;;;4124814;34;20225;-75
2022/03/25 08:13:03;;;;;;;18.98;10.23;;;;;;;;;;4137396;34;20207;-76
2022/03/25 08:15:30;;;;;;;18.95;9.10;;;;;;;;;;4113580;34;20200;-75
2022/03/25 08:18:01;;;;;;;17.15;9.80;;;;;;;;;;4124608;34;20092;-76
2022/03/25 08:20:47;;;;;;;24.48;9.73;;;;;;;;;;4124482;34;20112;-75
2022/03/25 08:28:54;;;;;;;16.62;9.88;;;;;;;;;;4126654;34;20468;-74
2022/03/25 08:31:20;;;;;;;18.12;9.50;;;;;;;;;;4124504;34;20098;-72
2022/03/25 08:33:46;;;;;;;19.23;9.88;;;;;;;;;;4137126;34;20107;-73
2022/03/25 08:36:12;;;;;;;18.65;9.30;;;;;;;;;;4124647;34;20111;-74
2022/03/25 08:38:38;;;;;;;17.40;9.73;;;;;;;;;;4136984;34;20111;-73
2022/03/25 08:41:04;;;;;;;15.15;10.27;;;;;;;;;;4136835;34;20231;-71
2022/03/25 08:43:31;;;;;;;17.75;9.70;;;;;;;;;;4136850;34;20558;-73
2022/03/25 08:45:57;;;;;;;21.42;9.40;;;;;;;;;;4136733;34;20539;-68
2022/03/25 08:48:24;;;;;;;15.45;9.13;;;;;;;;;;4136831;34;20216;-72
2022/03/25 08:50:50;;;;;;;13.55;8.25;;;;;;;;;;4136633;34;20134;-72
2022/03/25 08:53:17;;;;;;;15.82;9.63;;;;;;;;;;4136752;34;20121;-71
2022/03/25 08:55:43;;;;;;;14.25;9.23;;;;;;;;;;4124094;34;20138;-70
2022/03/25 08:58:09;;;;;;;14.50;8.05;;;;;;;;;;4136762;34;20199;-71
2022/03/25 09:00:35;;;;;;;16.95;9.00;;;;;;;;;;4135176;34;20210;-72
2022/03/25 09:03:01;;;;;;;14.77;9.38;;;;;;;;;;4136642;34;20468;-70
2022/03/25 09:05:27;;;;;;;30.52;10.70;;;;;;;;;;4136693;34;20599;-70
2022/03/25 09:07:53;;;;;;;17.30;9.57;;;;;;;;;;4136601;34;20115;-70
2022/03/25 09:10:19;;;;;;;21.90;10.93;;;;;;;;;;4135584;34;20203;-71
2022/03/25 09:12:46;;;;;;;17.37;9.70;;;;;;;;;;4136379;34;20134;-70
2022/03/25 09:15:13;;;;;;;19.95;9.90;;;;;;;;;;4136613;34;20106;-73
2022/03/25 09:17:41;;;;;;;19.52;10.38;;;;;;;;;;4136396;34;20216;-73
2022/03/25 09:20:08;;;;;;;18.80;9.02;;;;;;;;;;4136521;34;20138;-76
2022/03/25 09:22:35;;;;;;;14.93;9.57;;;;;;;;;;4124035;34;20180;-75
2022/03/25 09:25:02;;;;;;;14.93;9.23;;;;;;;;;;4136341;34;20202;-75
2022/03/25 09:27:28;;;;;;;17.55;8.90;;;;;;;;;;4124151;34;20583;-75
2022/03/25 09:29:54;;;;;;;17.08;9.65;;;;;;;;;;4124038;34;20111;-76
2022/03/25 09:32:20;;;;;;;25.75;10.23;;;;;;;;;;4123830;34;20103;-78
2022/03/25 09:37:31;;;;;;;24.67;11.47;;;;;;;;;;4136451;34;20500;-75
2022/03/25 09:39:57;;;;;;;24.70;10.73;;;;;;;;;;4136330;34;20094;-75
2022/03/25 09:42:24;;;;;;;22.87;10.93;;;;;;;;;;4124043;34;20119;-76
2022/03/25 09:44:54;;;;;;;20.62;10.77;;;;;;;;;;4124109;34;20411;-77
2022/03/25 09:47:20;;;;;;;22.42;10.35;;;;;;;;;;4123968;34;20130;-75
2022/03/25 09:49:46;;;;;;;19.65;10.30;;;;;;;;;;4134829;34;20118;-74
2022/03/25 09:52:12;;;;;;;17.55;10.45;;;;;;;;;;4136109;34;20135;-74
2022/03/25 09:54:38;;;;;;;16.70;11.30;;;;;;;;;;4135737;34;20119;-73
2022/03/25 09:57:04;;;;;;;14.45;9.50;;;;;;;;;;4134655;34;20149;-69
2022/03/25 09:59:30;;;;;;;16.87;10.50;;;;;;;;;;4138227;34;20103;-72
2022/03/25 10:01:56;;;;;;;17.12;8.90;;;;;;;;;;4137514;34;20119;-74
2022/03/25 10:04:38;;;;;;;13.88;9.50;;;;;;;;;;4113048;34;20099;-75
2022/03/25 10:07:28;;;;;;;12.68;8.43;;;;;;;;;;4124908;34;20102;-74
2022/03/25 10:10:14;;;;;;;13.07;9.18;;;;;;;;;;4100724;34;20111;-72
2022/03/25 10:12:42;;;;;;;14.30;9.55;;;;;;;;;;4136246;34;20119;-70
2022/03/25 10:15:32;;;;;;;11.90;8.35;;;;;;;;;;4136253;34;20115;-73
2022/03/25 10:18:06;;;;;;;16.33;8.70;;;;;;;;;;4123810;34;20531;-73
2022/03/25 10:20:37;;;;;;;14.80;8.20;;;;;;;;;;4124534;34;20551;-73
2022/03/25 10:23:17;;;;;;;12.37;8.80;;;;;;;;;;4120965;34;20135;-75
2022/03/25 10:25:45;;;;;;;11.07;8.68;;;;;;;;;;4120665;34;20110;-75
2022/03/25 10:28:31;;;;;;;15.05;8.82;;;;;;;;;;4133677;34;20135;-74
2022/03/25 10:31:02;;;;;;;15.25;7.28;;;;;;;;;;4131976;34;20223;-77
2022/03/25 10:33:37;;;;;;;8.55;7.60;;;;;;;;;;4121138;34;20110;-76
2022/03/25 10:36:09;;;;;;;10.23;7.35;;;;;;;;;;4123221;34;20124;-71
2022/03/25 10:38:57;;;;;;;12.48;7.75;;;;;;;;;;4134970;34;20135;-73
2022/03/25 10:41:25;;;;;;;11.23;6.87;;;;;;;;;;4134830;34;20891;-73
2022/03/25 10:44:04;;;;;;;12.23;8.07;;;;;;;;;;4122380;34;20119;-76
2022/03/25 10:46:39;;;;;;;10.32;7.70;;;;;;;;;;4111363;34;20135;-75
2022/03/25 10:49:10;;;;;;;13.93;7.75;;;;;;;;;;4133462;34;20135;-73
2022/03/25 10:51:41;;;;;;;12.68;7.62;;;;;;;;;;4136527;34;20138;-76
2022/03/25 10:54:09;;;;;;;18.20;8.05;;;;;;;;;;4125459;34;20440;-74
2022/03/25 10:56:46;;;;;;;13.40;7.25;;;;;;;;;;4136982;34;20127;-77
2022/03/25 10:59:25;;;;;;;13.18;8.15;;;;;;;;;;4122086;34;20111;-75
2022/03/25 11:01:53;;;;;;;14.35;7.70;;;;;;;;;;4122010;34;20128;-74
2022/03/25 11:04:20;;;;;;;12.27;7.18;;;;;;;;;;4122307;34;20120;-74
2022/03/25 11:06:47;;;;;;;14.10;8.05;;;;;;;;;;4121976;34;20130;-73
2022/03/25 11:09:14;;;;;;;13.38;8.55;;;;;;;;;;4122335;34;20119;-72
2022/03/25 11:11:45;;;;;;;11.12;7.80;;;;;;;;;;4121873;34;20204;-73
2022/03/25 11:14:11;;;;;;;12.88;8.20;;;;;;;;;;4125157;34;20127;-75
2022/03/25 11:16:43;;;;;;;12.98;8.80;;;;;;;;;;4124939;34;20095;-72
2022/03/25 11:19:09;;;;;;;12.90;9.57;;;;;;;;;;4137457;34;20473;-72
2022/03/25 11:21:39;;;;;;;13.43;9.35;;;;;;;;;;4137550;34;20096;-73
2022/03/25 11:24:08;;;;;;;12.15;8.77;;;;;;;;;;4137586;34;20104;-73
2022/03/25 11:26:37;;;;;;;12.55;8.63;;;;;;;;;;4135792;34;20099;-73
2022/03/25 11:29:07;;;;;;;8.98;7.35;;;;;;;;;;4125045;34;20115;-73
2022/03/25 11:32:02;;;;;;;10.82;7.97;;;;;;;;;;4124957;34;20202;-72
2022/03/25 11:34:28;;;;;;;12.43;8.67;;;;;;;;;;4124471;34;20100;-74
2022/03/25 11:37:33;;;;;;;13.82;9.05;;;;;;;;;;4124981;34;20115;-74
2022/03/25 11:40:25;;;;;;;14.95;8.25;;;;;;;;;;4113585;34;20538;-75
2022/03/25 11:42:52;;;;;;;13.30;8.82;;;;;;;;;;4137417;34;20106;-66
2022/03/25 11:45:21;;;;;;;13.43;9.32;;;;;;;;;;4137108;34;20198;-69
2022/03/25 11:47:59;;;;;;;9.93;6.87;;;;;;;;;;4135868;34;20183;-78
2022/03/25 11:50:34;;;;;;;19.20;8.55;;;;;;;;;;4137553;34;20524;-77
2022/03/25 11:53:12;;;;;;;12.90;8.73;;;;;;;;;;4128111;34;20091;-76
2022/03/25 11:55:56;;;;;;;14.27;9.00;;;;;;;;;;4125115;34;20100;-77
2022/03/25 11:58:23;;;;;;;13.52;9.80;;;;;;;;;;4100579;34;20441;-79
2022/03/25 12:00:53;;;;;;;11.63;9.20;;;;;;;;;;4111931;34;20202;-77
2022/03/25 12:03:20;;;;;;;14.32;9.45;;;;;;;;;;4124892;34;20551;-83
2022/03/25 12:06:02;;;;;;;13.62;9.27;;;;;;;;;;4134854;34;20154;-82
2022/03/25 12:08:32;;;;;;;18.02;8.88;;;;;;;;;;4122622;34;20103;-83
2022/03/25 12:11:00;;;;;;;12.57;8.82;;;;;;;;;;4133484;34;20122;-81
2022/03/25 12:13:51;;;;;;;12.30;7.87;;;;;;;;;;4123149;34;20614;-86
2022/03/25 12:16:48;;;;;;;9.88;7.50;;;;;;;;;;4138764;34;20194;-82
2022/03/25 12:19:28;;;;;;;15.15;8.43;;;;;;;;;;4139001;34;20829;-83
2022/03/25 12:21:55;;;;;;;14.77;9.27;;;;;;;;;;4141810;34;20130;-82
2022/03/25 12:24:21;;;;;;;14.07;9.00;;;;;;;;;;4137905;34;20553;-82
2022/03/25 12:27:08;;;;;;;12.37;8.15;;;;;;;;;;4124302;34;20126;-81
2022/03/25 12:29:37;;;;;;;16.95;8.98;;;;;;;;;;4124658;34;20139;-80
2022/03/25 12:32:05;;;;;;;16.05;8.90;;;;;;;;;;4124299;34;20131;-78
2022/03/25 12:34:42;;;;;;;13.57;8.75;;;;;;;;;;4135872;34;20099;-77
2022/03/25 12:37:13;;;;;;;12.30;8.60;;;;;;;;;;4124319;34;20115;-74
2022/03/25 12:39:39;;;;;;;16.58;9.63;;;;;;;;;;4124217;34;20525;-76
2022/03/25 12:42:12;;;;;;;13.20;9.40;;;;;;;;;;4137077;34;20127;-77
2022/03/25 12:44:38;;;;;;;11.12;9.23;;;;;;;;;;4135174;34;20123;-73
2022/03/25 12:47:05;;;;;;;11.43;8.23;;;;;;;;;;4124066;34;20227;-77
2022/03/25 12:49:32;;;;;;;14.35;8.93;;;;;;;;;;4137273;34;20107;-78
2022/03/25 12:52:04;;;;;;;14.10;8.88;;;;;;;;;;4138056;34;20127;-78
2022/03/25 12:54:31;;;;;;;17.50;10.45;;;;;;;;;;4125454;34;20120;-75
2022/03/25 12:56:59;;;;;;;16.90;9.68;;;;;;;;;;4125429;34;20464;-80
2022/03/25 12:59:33;;;;;;;13.93;9.52;;;;;;;;;;4137953;34;20158;-76
2022/03/25 13:02:07;;;;;;;13.27;8.77;;;;;;;;;;4136876;34;20111;-78
2022/03/25 13:04:33;;;;;;;15.15;9.82;;;;;;;;;;4135484;34;20523;-77
2022/03/25 13:07:08;;;;;;;18.35;10.98;;;;;;;;;;4136671;34;20221;-70
2022/03/25 13:09:34;;;;;;;17.33;10.95;;;;;;;;;;4135288;34;20220;-73
2022/03/25 13:12:02;;;;;;;15.90;10.07;;;;;;;;;;4135467;34;20190;-74
2022/03/25 13:14:29;;;;;;;18.42;10.65;;;;;;;;;;4136659;34;20139;-77
2022/03/25 13:16:55;;;;;;;16.60;10.80;;;;;;;;;;4124394;34;20472;-75
2022/03/25 13:19:31;;;;;;;14.00;10.65;;;;;;;;;;4124206;34;20092;-76
2022/03/25 13:22:19;;;;;;;18.25;10.95;;;;;;;;;;4136646;34;20108;-74
2022/03/25 13:24:55;;;;;;;20.62;11.85;;;;;;;;;;4136709;34;20116;-72
2022/03/25 13:27:21;;;;;;;16.58;11.25;;;;;;;;;;4136205;34;20122;-70
2022/03/25 13:29:47;;;;;;;14.68;10.45;;;;;;;;;;4123909;34;20122;-67
2022/03/25 13:32:37;;;;;;;16.15;10.82;;;;;;;;;;4124112;34;20125;-67
2022/03/25 13:35:05;;;;;;;17.23;10.68;;;;;;;;;;4136279;34;20821;-66
2022/03/25 13:37:32;;;;;;;20.10;11.68;;;;;;;;;;4134976;34;20111;-66
2022/03/25 13:39:58;;;;;;;19.98;11.40;;;;;;;;;;4136128;34;20099;-65
2022/03/25 13:42:32;;;;;;;19.08;11.43;;;;;;;;;;4136172;34;20108;-64
2022/03/25 13:45:06;;;;;;;18.15;11.65;;;;;;;;;;4136350;34;20118;-65
2022/03/25 13:47:32;;;;;;;16.90;12.48;;;;;;;;;;4136273;34;20134;-68
2022/03/25 13:50:14;;;;;;;19.73;13.05;;;;;;;;;;4136150;34;20173;-67
2022/03/25 13:52:41;;;;;;;15.65;12.30;;;;;;;;;;4136416;34;20127;-70
2022/03/25 13:55:16;;;;;;;16.23;12.40;;;;;;;;;;4136017;34;20111;-71
2022/03/25 13:57:56;;;;;;;21.58;12.52;;;;;;;;;;4133662;34;20666;-72
2022/03/25 14:00:33;;;;;;;22.98;13.30;;;;;;;;;;4134515;34;20115;-72
2022/03/25 14:02:59;;;;;;;18.92;13.02;;;;;;;;;;4121121;34;20108;-72
2022/03/25 14:05:26;;;;;;;16.52;12.30;;;;;;;;;;4122659;34;20555;-73
2022/03/25 14:07:54;;;;;;;21.45;13.70;;;;;;;;;;4134771;34;20115;-70
2022/03/25 14:10:26;;;;;;;20.52;13.75;;;;;;;;;;4134710;34;20111;-71
2022/03/25 14:13:03;;;;;;;17.60;13.05;;;;;;;;;;4124923;34;20122;-73
2022/03/25 14:15:31;;;;;;;20.90;13.95;;;;;;;;;;4123751;34;20125;-72
2022/03/25 14:18:01;;;;;;;19.65;13.48;;;;;;;;;;4134581;34;20096;-74
2022/03/25 14:20:40;;;;;;;18.70;12.20;;;;;;;;;;4134047;34;20437;-69
2022/03/25 14:23:11;;;;;;;17.77;11.82;;;;;;;;;;4134780;34;20660;-72
2022/03/25 14:25:37;;;;;;;18.48;11.77;;;;;;;;;;4135550;34;20118;-73
2022/03/25 14:28:10;;;;;;;14.35;11.15;;;;;;;;;;4134681;34;20578;-73
2022/03/25 14:30:36;;;;;;;20.75;12.27;;;;;;;;;;4135625;34;20115;-76
2022/03/25 14:33:03;;;;;;;22.92;13.30;;;;;;;;;;4136010;34;20232;-77
2022/03/25 14:35:29;;;;;;;17.85;12.80;;;;;;;;;;4139785;34;20115;-77
2022/03/25 14:37:56;;;;;;;18.35;13.13;;;;;;;;;;4120613;34;20179;-75
2022/03/25 14:40:23;;;;;;;18.80;14.48;;;;;;;;;;4130227;34;20189;-76
2022/03/25 14:42:49;;;;;;;20.20;15.50;;;;;;;;;;4134307;34;20533;-73
2022/03/25 14:45:15;;;;;;;23.10;16.75;;;;;;;;;;4140435;34;20083;-74
2022/03/25 14:47:41;;;;;;;25.90;16.30;;;;;;;;;;4135251;34;20139;-74
2022/03/25 14:50:09;;;;;;;23.05;16.37;;;;;;;;;;4135350;34;20424;-76
2022/03/25 14:52:39;;;;;;;21.48;16.60;;;;;;;;;;4123374;34;20202;-75
2022/03/25 14:55:08;;;;;;;30.23;18.20;;;;;;;;;;4140042;34;20476;-74
2022/03/25 14:57:34;;;;;;;31.73;23.17;;;;;;;;;;4134277;34;20199;-74
2022/03/25 15:00:02;;;;;;;24.40;18.60;;;;;;;;;;4127001;34;20182;-76
2022/03/25 15:02:28;;;;;;;20.37;14.60;;;;;;;;;;4123065;34;20095;-76
2022/03/25 15:04:55;;;;;;;21.25;12.13;;;;;;;;;;4133999;34;20517;-76
2022/03/25 15:07:21;;;;;;;17.95;12.45;;;;;;;;;;4133996;34;20461;-76
2022/03/25 15:09:47;;;;;;;19.83;14.68;;;;;;;;;;4137331;34;20123;-77